Time;durP1;ratioP1;P1;durP2;ratioP2;P2;SDS_P1;SDS_P2;PMS_P1;PMS_P2;Temp;Humidity;BMP_temperature;BMP_pressure;BME280_temperature;BME280_humidity;BME280_pressure;Samples;Min_cycle;Max_cycle;Signal;HPM_P1;HPM_P2
2021/01/08 00:02:45;;;;;;;;;8.00;8.00;;;;;9.96;69.14;100936.84;4362088;32;12626;-77
2021/01/08 00:05:41;;;;;;;;;8.50;8.50;;;;;9.79;68.31;100954.19;4357958;32;12306;-78
2021/01/08 00:08:36;;;;;;;;;11.50;11.50;;;;;9.88;68.27;100957.78;4374060;32;11920;-79
2021/01/08 00:11:35;;;;;;;;;11.50;11.50;;;;;9.79;68.94;100964.41;4364264;32;12275;-78
2021/01/08 00:14:31;;;;;;;;;15.25;15.25;;;;;9.56;68.87;100972.75;4372499;32;12263;-78
2021/01/08 00:17:30;;;;;;;;;13.00;12.00;;;;;9.65;68.67;100976.37;4363585;32;11961;-79
2021/01/08 00:20:26;;;;;;;;;11.50;11.50;;;;;9.74;68.62;100968.97;4373510;32;12279;-79
2021/01/08 00:23:21;;;;;;;;;11.00;11.00;;;;;9.62;68.76;100965.97;4372958;32;12328;-78
2021/01/08 00:26:22;;;;;;;;;11.75;11.75;;;;;9.37;69.45;100969.41;4358943;32;12091;-79
2021/01/08 00:29:17;;;;;;;;;16.00;14.25;;;;;9.52;68.96;100971.78;4370288;32;13130;-78
2021/01/08 00:32:13;;;;;;;;;12.00;12.00;;;;;9.12;69.52;100984.66;4372149;32;12310;-79
2021/01/08 00:35:09;;;;;;;;;12.00;12.00;;;;;9.36;69.21;100976.06;4363214;32;12299;-79
2021/01/08 00:38:06;;;;;;;;;14.50;14.50;;;;;9.52;68.63;100987.53;4372805;32;12325;-79
2021/01/08 00:41:01;;;;;;;;;12.00;12.00;;;;;9.25;68.96;100992.06;4374260;32;12985;-78
2021/01/08 00:43:57;;;;;;;;;12.25;12.25;;;;;9.43;68.11;100987.47;4360726;32;12385;-79
2021/01/08 00:46:53;;;;;;;;;6.00;6.00;;;;;9.48;68.09;101001.12;4350614;33;12440;-78
2021/01/08 00:49:49;;;;;;;;;10.00;10.00;;;;;9.12;67.61;101010.34;4362600;32;12343;-79
2021/01/08 00:52:44;;;;;;;;;7.00;7.00;;;;;9.11;68.02;101005.91;4350777;32;12313;-78
2021/01/08 00:55:40;;;;;;;;;7.00;7.00;;;;;9.01;68.12;101025.47;4351083;33;12382;-79
2021/01/08 00:58:35;;;;;;;;;10.50;10.50;;;;;9.01;67.64;101017.22;4350923;33;12339;-80
2021/01/08 01:01:31;;;;;;;;;7.50;7.50;;;;;9.12;67.39;101010.34;4361731;32;12319;-80
2021/01/08 01:03:59;;;;;;;;;8.50;8.50;;;;;9.15;67.06;101022.69;4361356;32;12341;-79
2021/01/08 01:06:55;;;;;;;;;6.00;6.00;;;;;9.06;67.56;101021.81;4368139;32;12955;-80
2021/01/08 01:09:51;;;;;;;;;3.00;3.00;;;;;9.08;67.50;101031.38;4360258;32;12287;-78
2021/01/08 01:12:46;;;;;;;;;8.00;6.75;;;;;8.89;68.08;101041.75;4359944;32;12310;-79
2021/01/08 01:15:36;;;;;;;;;7.75;7.75;;;;;9.04;67.48;101033.13;4351541;32;12335;-79
2021/01/08 01:18:04;;;;;;;;;6.25;6.25;;;;;8.95;67.00;101048.78;4348083;33;12313;-79
2021/01/08 01:20:59;;;;;;;;;7.00;7.00;;;;;8.86;67.33;101045.16;4350571;32;12348;-79
2021/01/08 01:23:55;;;;;;;;;5.25;5.25;;;;;8.80;67.57;101030.66;4359286;33;12310;-79
2021/01/08 01:26:55;;;;;;;;;5.75;5.75;;;;;8.86;67.39;101045.16;4360177;32;12328;-79
2021/01/08 01:29:37;;;;;;;;;7.25;7.25;;;;;8.51;67.80;101046.75;4361619;32;12352;-79
2021/01/08 01:32:32;;;;;;;;;3.50;3.50;;;;;8.77;67.35;101053.34;4359633;32;12316;-78
2021/01/08 01:35:29;;;;;;;;;4.50;4.50;;;;;8.53;67.61;101050.84;4360851;32;12455;-78
2021/01/08 01:38:27;;;;;;;;;7.75;7.75;;;;;8.68;67.59;101057.97;4373662;32;12326;-79
2021/01/08 01:41:22;;;;;;;;;5.00;5.00;;;;;8.72;67.35;101049.88;4351883;32;12307;-78
2021/01/08 01:44:18;;;;;;;;;7.00;7.00;;;;;8.41;67.73;101058.81;4364069;32;12320;-79
2021/01/08 01:47:13;;;;;;;;;10.00;10.00;;;;;8.56;67.39;101052.97;4364474;32;12397;-79
2021/01/08 01:49:55;;;;;;;;;11.75;11.75;;;;;8.58;67.14;101056.22;4365652;32;12384;-78
2021/01/08 01:52:50;;;;;;;;;11.50;11.50;;;;;8.31;66.84;101067.25;4373313;32;13133;-79
2021/01/08 01:55:47;;;;;;;;;11.00;11.00;;;;;8.33;67.07;101065.00;4364607;32;12378;-79
2021/01/08 01:58:18;;;;;;;;;11.75;11.75;;;;;8.31;66.85;101062.56;4360147;32;12334;-79
2021/01/08 02:01:14;;;;;;;;;14.00;14.00;;;;;8.21;66.94;101082.06;4363759;32;12408;-80
2021/01/08 02:04:10;;;;;;;;;18.75;17.25;;;;;8.30;66.57;101091.25;4352490;32;12377;-80
2021/01/08 02:06:38;;;;;;;;;14.75;14.75;;;;;8.24;66.82;101095.22;4348513;32;12348;-79
2021/01/08 02:09:34;;;;;;;;;16.25;16.25;;;;;8.36;66.25;101097.50;4359089;32;12437;-79
2021/01/08 02:12:32;;;;;;;;;15.25;15.25;;;;;8.34;66.42;101086.75;4349447;33;12270;-78
2021/01/08 02:15:02;;;;;;;;;15.50;15.50;;;;;8.16;66.73;101095.09;4347406;33;12362;-79
2021/01/08 02:18:01;;;;;;;;;13.75;13.75;;;;;8.20;65.92;101096.12;4349447;33;12427;-79
2021/01/08 02:21:03;;;;;;;;;14.50;14.50;;;;;8.20;66.06;101112.66;4350584;33;12294;-78
2021/01/08 02:24:35;;;;;;;;;14.75;14.00;;;;;8.02;66.17;101117.12;4382107;32;12437;-79
2021/01/08 02:27:34;;;;;;;;;12.25;12.25;;;;;8.16;66.51;101117.16;4362206;32;13190;-78
2021/01/08 02:30:03;;;;;;;;;12.00;12.00;;;;;8.15;65.48;101116.34;4348616;32;12325;-78
2021/01/08 02:32:50;;;;;;;;;10.00;10.00;;;;;7.93;66.65;101111.50;4350080;32;12337;-79
2021/01/08 02:35:49;;;;;;;;;10.00;10.00;;;;;8.04;65.87;101123.94;4368428;32;12374;-78
2021/01/08 02:38:50;;;;;;;;;11.50;11.50;;;;;8.12;66.30;101124.38;4364287;32;12453;-78
2021/01/08 02:41:50;;;;;;;;;9.75;9.75;;;;;8.09;66.25;101121.13;4364503;32;12340;-78
2021/01/08 02:44:46;;;;;;;;;7.00;7.00;;;;;8.02;66.96;101131.72;4364602;32;12394;-79
2021/01/08 02:47:41;;;;;;;;;9.50;9.50;;;;;8.03;66.97;101130.59;4363407;32;12376;-80
2021/01/08 02:50:37;;;;;;;;;9.50;9.50;;;;;7.87;67.36;101131.97;4373451;32;12360;-78
2021/01/08 02:53:35;;;;;;;;;9.50;9.50;;;;;7.70;68.28;101132.53;4362623;32;12410;-79
2021/01/08 02:56:37;;;;;;;;;10.75;10.75;;;;;7.73;68.68;101136.62;4377468;32;12317;-79
2021/01/08 02:59:34;;;;;;;;;8.75;8.75;;;;;7.53;69.33;101133.09;4364742;32;12446;-79
2021/01/08 03:02:31;;;;;;;;;9.00;9.00;;;;;7.65;69.37;101140.88;4360283;32;12484;-80
2021/01/08 03:05:28;;;;;;;;;9.75;9.75;;;;;7.35;70.45;101149.59;4359016;32;12496;-79
2021/01/08 03:08:25;;;;;;;;;9.00;9.00;;;;;7.58;69.64;101143.19;4347866;33;12400;-79
2021/01/08 03:11:11;;;;;;;;;10.00;10.00;;;;;7.30;71.07;101153.28;4349218;32;12342;-79
2021/01/08 03:14:06;;;;;;;;;10.00;10.00;;;;;7.25;71.34;101156.09;4349466;33;12490;-77
2021/01/08 03:17:02;;;;;;;;;9.75;9.75;;;;;7.53;70.50;101152.37;4348047;33;12566;-78
2021/01/08 03:19:57;;;;;;;;;10.50;8.00;;;;;6.99;71.85;101143.81;4363768;32;12563;-78
2021/01/08 03:22:53;;;;;;;;;13.25;13.25;;;;;7.28;71.22;101144.47;4363159;32;12402;-78
2021/01/08 03:25:48;;;;;;;;;10.75;10.00;;;;;7.24;71.43;101129.69;4363268;32;13068;-79
2021/01/08 03:28:17;;;;;;;;;15.25;13.75;;;;;7.30;70.95;101128.50;4374362;32;12345;-79
2021/01/08 03:30:48;;;;;;;;;13.00;13.00;;;;;7.30;71.02;101135.94;4372866;32;12448;-79
2021/01/08 03:33:44;;;;;;;;;11.50;11.50;;;;;7.04;71.84;101132.72;4374323;32;12496;-78
2021/01/08 03:36:12;;;;;;;;;15.00;15.00;;;;;7.21;71.30;101133.06;4373850;32;12270;-74
2021/01/08 03:39:03;;;;;;;;;14.25;14.25;;;;;6.92;72.42;101138.69;4374229;32;12453;-73
2021/01/08 03:41:58;;;;;;;;;12.50;10.75;;;;;6.80;72.36;101147.34;4372771;32;12385;-73
2021/01/08 03:44:39;;;;;;;;;10.00;10.00;;;;;7.04;71.79;101140.97;4366612;32;12383;-73
2021/01/08 03:47:07;;;;;;;;;15.25;14.75;;;;;6.70;72.20;101155.72;4355986;32;12433;-74
2021/01/08 03:50:03;;;;;;;;;10.25;10.25;;;;;6.90;71.97;101143.62;4374211;32;12439;-73
2021/01/08 03:52:59;;;;;;;;;17.25;17.00;;;;;6.82;72.22;101150.59;4373178;32;12427;-73
2021/01/08 03:55:54;;;;;;;;;14.50;13.75;;;;;6.82;71.91;101169.84;4372060;32;12393;-73
2021/01/08 03:58:22;;;;;;;;;12.75;12.75;;;;;6.54;72.95;101152.34;4373876;32;12439;-73
2021/01/08 04:01:19;;;;;;;;;15.25;15.25;;;;;6.46;73.19;101160.41;4372846;32;12630;-73
2021/01/08 04:04:14;;;;;;;;;15.75;15.75;;;;;6.54;72.62;101168.00;4348460;33;12479;-73
2021/01/08 04:07:10;;;;;;;;;12.25;12.25;;;;;6.54;72.26;101170.75;4357855;33;12402;-73
2021/01/08 04:09:55;;;;;;;;;15.00;15.00;;;;;6.32;72.82;101176.75;4347233;33;12437;-73
2021/01/08 04:12:51;;;;;;;;;13.50;13.50;;;;;6.34;72.80;101178.09;4359614;32;12432;-73
2021/01/08 04:15:46;;;;;;;;;16.25;16.25;;;;;6.30;72.87;101184.47;4374602;32;12388;-73
2021/01/08 04:18:28;;;;;;;;;16.75;16.50;;;;;6.31;72.68;101189.69;4375558;32;13078;-73
2021/01/08 04:21:23;;;;;;;;;16.00;16.00;;;;;6.22;72.70;101190.59;4365518;32;12454;-73
2021/01/08 04:24:19;;;;;;;;;13.50;13.50;;;;;6.17;72.73;101196.13;4375658;32;13046;-73
2021/01/08 04:26:47;;;;;;;;;14.75;14.75;;;;;6.18;72.71;101197.78;4376209;32;12363;-73
2021/01/08 04:29:42;;;;;;;;;20.25;18.50;;;;;6.19;72.35;101202.97;4376017;32;12442;-73
2021/01/08 04:32:27;;;;;;;;;18.25;17.25;;;;;6.10;72.59;101212.94;4353548;32;12390;-73
2021/01/08 04:35:04;;;;;;;;;18.00;17.00;;;;;6.06;72.56;101220.94;4376187;32;12434;-74
2021/01/08 04:37:59;;;;;;;;;19.25;19.25;;;;;5.98;72.64;101234.44;4365634;32;12447;-73
2021/01/08 04:40:55;;;;;;;;;17.50;17.50;;;;;5.95;72.76;101240.53;4370780;32;12388;-73
2021/01/08 04:43:51;;;;;;;;;16.00;16.00;;;;;5.91;72.71;101264.19;4375737;32;12391;-72
2021/01/08 04:46:23;;;;;;;;;14.50;14.50;;;;;5.82;72.92;101266.66;4376732;32;13128;-74
2021/01/08 04:49:19;;;;;;;;;16.75;16.75;;;;;5.75;73.08;101266.16;4376269;32;12397;-74
2021/01/08 04:52:15;;;;;;;;;17.75;17.75;;;;;5.75;73.06;101267.00;4374639;32;12450;-74
2021/01/08 04:54:57;;;;;;;;;21.25;21.00;;;;;5.73;73.01;101271.94;4375782;32;12459;-74
2021/01/08 04:57:55;;;;;;;;;19.00;19.00;;;;;5.80;72.64;101266.94;4366618;32;12417;-74
2021/01/08 05:00:51;;;;;;;;;22.25;22.25;;;;;5.75;72.81;101274.37;4374572;32;13051;-74
2021/01/08 05:03:47;;;;;;;;;26.25;26.25;;;;;5.77;72.47;101278.50;4375259;32;12590;-74
2021/01/08 05:06:43;;;;;;;;;18.00;18.00;;;;;5.56;72.98;101282.47;4377245;32;12602;-75
2021/01/08 05:09:39;;;;;;;;;19.25;19.25;;;;;5.56;72.86;101290.69;4376158;32;12416;-75
2021/01/08 05:12:42;;;;;;;;;24.50;22.50;;;;;5.44;73.54;101302.00;4377356;32;12455;-75
2021/01/08 05:15:25;;;;;;;;;20.00;20.00;;;;;5.58;72.72;101318.66;4375647;32;12527;-75
2021/01/08 05:18:21;;;;;;;;;20.25;20.25;;;;;5.39;73.36;101313.00;4383162;32;12538;-75
2021/01/08 05:20:51;;;;;;;;;24.50;24.00;;;;;5.50;72.72;101322.00;4377529;32;12378;-75
2021/01/08 05:23:48;;;;;;;;;18.00;17.25;;;;;5.52;72.56;101317.91;4377467;32;13070;-75
2021/01/08 05:26:43;;;;;;;;;23.75;21.00;;;;;5.43;72.51;101319.56;4391018;32;13067;-75
2021/01/08 05:29:42;;;;;;;;;23.75;23.50;;;;;5.43;72.52;101326.97;4391761;32;12475;-75
2021/01/08 05:32:10;;;;;;;;;24.75;23.75;;;;;5.24;72.70;101326.78;4390457;32;12353;-75
2021/01/08 05:35:00;;;;;;;;;19.25;18.50;;;;;5.42;72.46;101328.06;4379656;32;12410;-75
2021/01/08 05:37:55;;;;;;;;;19.50;19.50;;;;;5.37;72.69;101344.53;4390251;32;12337;-75
2021/01/08 05:41:00;;;;;;;;;20.50;20.50;;;;;5.36;72.72;101346.47;4379921;32;12462;-75
2021/01/08 05:43:57;;;;;;;;;19.75;19.75;;;;;5.31;72.73;101354.75;4362293;32;12624;-75
2021/01/08 05:46:35;;;;;;;;;15.00;15.00;;;;;5.08;73.17;101352.63;4348680;32;12442;-75
2021/01/08 05:49:32;;;;;;;;;17.75;17.75;;;;;5.19;73.46;101356.97;4356688;32;12416;-75
2021/01/08 05:52:28;;;;;;;;;12.50;12.50;;;;;5.09;73.81;101351.50;4376115;32;12343;-75
2021/01/08 05:55:27;;;;;;;;;19.75;19.75;;;;;5.08;74.04;101356.19;4359964;32;12465;-75
2021/01/08 05:58:20;;;;;;;;;17.50;16.75;;;;;5.07;74.12;101353.72;4361342;32;12343;-75
2021/01/08 06:01:04;;;;;;;;;17.25;16.75;;;;;5.14;74.04;101354.25;4360214;32;12366;-75
2021/01/08 06:04:03;;;;;;;;;19.00;19.00;;;;;5.18;73.75;101350.66;4358831;33;12456;-75
2021/01/08 06:07:15;;;;;;;;;15.25;15.25;;;;;5.27;73.63;101351.72;4350056;32;12479;-74
2021/01/08 06:09:49;;;;;;;;;16.50;16.50;;;;;5.38;73.24;101352.53;4348007;32;12392;-75
2021/01/08 06:12:46;;;;;;;;;16.00;16.00;;;;;5.22;73.62;101350.94;4353950;33;12381;-74
2021/01/08 06:15:43;;;;;;;;;10.50;10.50;;;;;5.11;73.91;101358.34;4358989;32;12341;-74
2021/01/08 06:18:39;;;;;;;;;16.75;16.75;;;;;5.34;73.05;101350.59;4348806;32;12313;-75
2021/01/08 06:21:11;;;;;;;;;12.75;12.75;;;;;5.37;72.97;101350.03;4360225;32;12361;-74
2021/01/08 06:23:44;;;;;;;;;14.25;14.25;;;;;5.30;72.98;101353.09;4360874;32;12330;-75
2021/01/08 06:26:16;;;;;;;;;16.50;14.50;;;;;5.38;72.83;101348.97;4360467;32;12358;-75
2021/01/08 06:29:26;;;;;;;;;16.00;16.00;;;;;5.37;72.88;101361.84;4344168;33;12403;-74
2021/01/08 06:31:57;;;;;;;;;19.75;15.75;;;;;5.49;72.66;101358.78;4346421;33;13143;-75
2021/01/08 06:34:30;;;;;;;;;13.75;13.75;;;;;5.53;72.35;101357.12;4335817;33;12342;-74
2021/01/08 06:37:09;;;;;;;;;14.75;14.75;;;;;5.61;72.80;101356.53;4356913;32;12391;-74
2021/01/08 06:39:45;;;;;;;;;14.50;14.50;;;;;5.65;72.56;101354.88;4352703;32;12338;-75
2021/01/08 06:42:28;;;;;;;;;16.50;16.50;;;;;5.78;71.67;101354.25;4354150;32;12335;-73
2021/01/08 06:44:57;;;;;;;;;15.75;15.50;;;;;5.87;71.70;101363.53;4349708;32;12276;-73
2021/01/08 06:47:29;;;;;;;;;14.25;14.25;;;;;5.98;71.32;101347.03;4347117;32;12490;-74
2021/01/08 06:49:57;;;;;;;;;14.00;14.00;;;;;6.03;70.89;101350.56;4339092;33;12334;-74
2021/01/08 06:52:28;;;;;;;;;14.50;14.50;;;;;5.91;71.04;101357.53;4347387;32;12449;-74
2021/01/08 06:56:31;;;;;;;;;16.50;16.50;;;;;6.56;69.10;101380.16;3310176;31;37054571;-73
2021/01/08 06:59:00;;;;;;;;;13.50;13.50;;;;;6.56;69.10;101380.16;4431944;32;8935;-73
2021/01/08 07:01:52;;;;;;;;;8.25;8.25;;;;;5.87;70.61;101381.94;4439283;32;12300;-74
2021/01/08 07:04:49;;;;;;;;;19.00;17.75;;;;;5.69;71.29;101390.81;4434431;32;12442;-74
2021/01/08 07:07:28;;;;;;;;;14.00;14.00;;;;;5.95;70.73;101397.03;4431870;32;12331;-74
2021/01/08 07:09:56;;;;;;;;;15.25;15.25;;;;;5.62;71.02;101393.03;4440776;32;12309;-74
2021/01/08 07:12:25;;;;;;;;;16.25;16.25;;;;;5.82;71.31;101399.25;4445570;32;13049;-74
2021/01/08 07:14:54;;;;;;;;;20.50;19.25;;;;;5.62;71.31;101404.00;4447556;32;12408;-74
2021/01/08 07:17:31;;;;;;;;;12.75;12.75;;;;;5.88;70.92;101402.78;4445123;32;12367;-73
2021/01/08 07:20:01;;;;;;;;;14.25;14.25;;;;;5.65;71.48;101400.69;4446297;32;12313;-74
2021/01/08 07:22:57;;;;;;;;;13.75;13.00;;;;;5.79;71.67;101405.31;4445531;32;12393;-74
2021/01/08 07:25:25;;;;;;;;;13.75;13.75;;;;;5.37;72.31;101394.78;4448170;32;12309;-74
2021/01/08 07:27:53;;;;;;;;;12.25;12.25;;;;;5.72;71.63;101402.03;4429438;32;12311;-74
2021/01/08 07:30:37;;;;;;;;;8.75;8.00;;;;;5.85;71.27;101403.37;4447153;32;12295;-74
2021/01/08 07:33:16;;;;;;;;;14.50;14.50;;;;;5.50;71.83;101405.12;4446446;32;12248;-73
2021/01/08 07:36:19;;;;;;;;;21.00;21.00;;;;;5.86;71.32;101402.25;4434789;32;13004;-73
2021/01/08 07:38:47;;;;;;;;;20.00;19.00;;;;;6.06;71.11;101420.59;4432822;32;12358;-74
2021/01/08 07:41:43;;;;;;;;;24.25;24.25;;;;;6.09;71.34;101418.09;4430989;32;12446;-73
2021/01/08 07:44:33;;;;;;;;;33.00;32.75;;;;;6.00;70.96;101419.78;4431513;32;12355;-73
2021/01/08 07:47:23;;;;;;;;;16.50;16.25;;;;;6.21;70.91;101403.19;4431936;32;12352;-73
2021/01/08 07:50:04;;;;;;;;;30.25;29.25;;;;;6.22;71.46;101410.34;4431102;32;12374;-73
2021/01/08 07:53:00;;;;;;;;;28.25;28.25;;;;;6.37;70.87;101405.56;4431189;32;12413;-73
2021/01/08 07:56:05;;;;;;;;;30.25;30.25;;;;;6.39;70.52;101395.09;4430252;32;12426;-73
2021/01/08 07:59:04;;;;;;;;;23.25;21.25;;;;;6.54;69.84;101394.19;4430454;32;12430;-73
2021/01/08 08:01:36;;;;;;;;;40.25;38.00;;;;;6.52;69.73;101390.09;4432380;32;13086;-73
2021/01/08 08:04:32;;;;;;;;;28.25;28.25;;;;;6.54;69.97;101393.34;4430734;32;12421;-74
2021/01/08 08:07:02;;;;;;;;;23.50;23.50;;;;;6.60;70.42;101400.47;4426058;32;12473;-75
2021/01/08 08:09:30;;;;;;;;;21.50;21.50;;;;;6.72;69.95;101405.56;4430973;32;12326;-74
2021/01/08 08:12:10;;;;;;;;;15.75;15.00;;;;;6.71;69.29;101402.00;4429817;32;12314;-73
2021/01/08 08:15:00;;;;;;;;;18.00;18.00;;;;;7.06;68.77;101402.81;4426511;32;12979;-74
2021/01/08 08:17:44;;;;;;;;;19.75;19.75;;;;;7.22;68.67;101404.28;4432157;32;12330;-74
2021/01/08 08:20:24;;;;;;;;;24.25;24.25;;;;;7.16;67.91;101410.97;4430397;32;12343;-73
2021/01/08 08:23:16;;;;;;;;;22.25;21.00;;;;;7.31;67.68;101418.25;4426992;32;12409;-74
2021/01/08 08:25:57;;;;;;;;;25.00;22.25;;;;;7.14;67.40;101410.44;4435534;32;12329;-74
2021/01/08 08:29:06;;;;;;;;;22.75;22.75;;;;;7.42;67.55;101422.50;4421373;32;12335;-73
2021/01/08 08:31:37;;;;;;;;;24.50;22.75;;;;;7.62;66.18;101424.22;4420753;32;12360;-73
2021/01/08 08:34:08;;;;;;;;;19.00;19.00;;;;;7.87;66.03;101410.13;4419546;32;12352;-73
2021/01/08 08:36:50;;;;;;;;;19.25;18.25;;;;;7.99;65.50;101418.81;4425939;32;12333;-74
2021/01/08 08:39:18;;;;;;;;;19.50;19.50;;;;;8.11;64.44;101410.09;4426017;32;12326;-74
2021/01/08 08:41:48;;;;;;;;;25.50;21.25;;;;;8.01;64.38;101405.53;4436262;32;12320;-73
2021/01/08 08:44:18;;;;;;;;;21.25;21.25;;;;;8.23;64.11;101406.91;4435766;32;12339;-74
2021/01/08 08:47:13;;;;;;;;;22.75;22.75;;;;;8.33;63.97;101409.50;4433956;32;12364;-72
2021/01/08 08:50:11;;;;;;;;;20.75;20.75;;;;;8.44;64.38;101404.69;4435327;32;12342;-72
2021/01/08 08:53:11;;;;;;;;;23.25;23.25;;;;;8.57;63.78;101413.00;4434953;32;12285;-73
2021/01/08 08:56:11;;;;;;;;;22.75;22.75;;;;;8.75;64.26;101407.78;4432572;32;12308;-73
2021/01/08 08:59:06;;;;;;;;;30.00;26.25;;;;;9.11;63.19;101400.50;4434435;32;12296;-73
2021/01/08 09:02:04;;;;;;;;;20.75;19.75;;;;;9.10;62.14;101398.88;4431811;32;12284;-73
2021/01/08 09:05:02;;;;;;;;;20.00;20.00;;;;;9.14;61.01;101404.62;4434629;32;12275;-73
2021/01/08 09:08:28;;;;;;;;;24.50;23.00;;;;;8.96;61.09;101399.97;4434914;32;12307;-73
2021/01/08 09:11:36;;;;;;;;;21.00;21.00;;;;;8.74;62.37;101406.13;4434663;32;12513;-73
2021/01/08 09:14:35;;;;;;;;;22.00;22.00;;;;;8.81;61.18;101404.62;4433752;32;12273;-74
2021/01/08 09:17:37;;;;;;;;;23.50;20.00;;;;;8.24;61.92;101403.84;4435761;32;12356;-73
2021/01/08 09:20:40;;;;;;;;;24.00;24.00;;;;;8.16;62.75;101395.44;4435076;32;12376;-74
2021/01/08 09:23:39;;;;;;;;;22.00;22.00;;;;;8.34;63.37;101394.59;4434304;32;12508;-74
2021/01/08 09:26:35;;;;;;;;;29.25;27.50;;;;;8.39;62.46;101402.00;4435008;32;12303;-73
2021/01/08 09:29:35;;;;;;;;;22.00;22.00;;;;;8.46;62.82;101402.47;4429365;32;12316;-73
2021/01/08 09:32:30;;;;;;;;;28.50;28.50;;;;;8.71;61.75;101387.44;4422612;32;12293;-73
2021/01/08 09:35:10;;;;;;;;;23.25;22.25;;;;;8.68;61.67;101391.62;4421142;32;12341;-74
2021/01/08 09:38:09;;;;;;;;;22.00;19.00;;;;;8.92;61.76;101391.50;4418298;32;12344;-73
2021/01/08 09:41:13;;;;;;;;;23.00;22.00;;;;;8.90;61.90;101385.47;4418950;32;12433;-72
2021/01/08 09:44:11;;;;;;;;;21.00;20.75;;;;;9.07;61.10;101385.69;4418815;32;12305;-71
2021/01/08 09:47:13;;;;;;;;;30.75;29.75;;;;;8.97;60.58;101371.25;4430204;32;12404;-71
2021/01/08 09:50:10;;;;;;;;;20.75;18.75;;;;;9.50;60.76;101377.13;4434456;32;12311;-72
2021/01/08 09:53:10;;;;;;;;;22.75;21.50;;;;;9.95;60.51;101377.31;4433975;32;12353;-72
2021/01/08 09:56:13;;;;;;;;;20.00;20.00;;;;;10.25;57.32;101378.59;4434485;32;12323;-73
2021/01/08 09:59:16;;;;;;;;;16.00;16.00;;;;;10.22;58.02;101374.50;4417434;32;12352;-73
2021/01/08 10:02:11;;;;;;;;;21.75;21.75;;;;;10.66;58.58;101364.63;4419005;32;11990;-72
2021/01/08 10:04:44;;;;;;;;;13.75;13.75;;;;;10.82;56.19;101363.09;4419046;32;11939;-74
2021/01/08 10:07:12;;;;;;;;;13.25;13.25;;;;;10.85;54.77;101367.97;4419923;32;11694;-71
2021/01/08 10:10:10;;;;;;;;;17.00;17.00;;;;;10.56;55.01;101360.13;4418557;32;11925;-72
2021/01/08 10:13:14;;;;;;;;;17.50;17.50;;;;;10.29;56.53;101363.03;4419185;32;11711;-71
2021/01/08 10:15:53;;;;;;;;;21.00;21.00;;;;;10.17;56.46;101366.31;4420071;32;12444;-72
2021/01/08 10:18:25;;;;;;;;;21.50;19.50;;;;;10.15;56.13;101362.22;4420217;32;11644;-72
2021/01/08 10:21:21;;;;;;;;;17.25;17.25;;;;;10.06;57.49;101356.63;4417707;32;11757;-72
2021/01/08 10:24:24;;;;;;;;;21.25;20.75;;;;;10.09;57.01;101361.50;4417142;32;12451;-72
2021/01/08 10:27:23;;;;;;;;;24.25;24.25;;;;;9.91;58.08;101356.97;4417191;32;12043;-72
2021/01/08 10:30:20;;;;;;;;;21.25;21.25;;;;;9.87;57.66;101358.69;4418370;32;12332;-72
2021/01/08 10:33:15;;;;;;;;;17.00;17.00;;;;;9.82;58.01;101353.31;4417233;32;12356;-72
2021/01/08 10:36:12;;;;;;;;;16.50;16.00;;;;;9.68;57.54;101359.66;4418072;32;12337;-72
2021/01/08 10:39:02;;;;;;;;;22.00;22.00;;;;;9.63;57.82;101351.47;4419632;32;12347;-73
2021/01/08 10:41:29;;;;;;;;;17.00;17.00;;;;;9.59;58.48;101356.00;4418964;32;12297;-72
2021/01/08 10:44:25;;;;;;;;;10.00;10.00;;;;;9.40;58.62;101341.47;4417387;32;12269;-73
2021/01/08 10:47:20;;;;;;;;;12.25;12.25;;;;;9.24;59.37;101356.69;4420250;32;12235;-72
2021/01/08 10:50:17;;;;;;;;;13.75;13.75;;;;;9.25;59.35;101352.81;4417253;32;12278;-73
2021/01/08 10:53:12;;;;;;;;;14.50;14.50;;;;;9.16;60.08;101349.94;4418298;32;12297;-72
2021/01/08 10:55:50;;;;;;;;;16.00;15.25;;;;;8.94;59.23;101352.56;4430323;32;12397;-73
2021/01/08 10:58:45;;;;;;;;;16.50;16.00;;;;;9.18;58.60;101355.97;4441512;32;12477;-74
2021/01/08 11:01:44;;;;;;;;;13.00;12.75;;;;;9.43;57.53;101352.72;4436265;32;12330;-72
2021/01/08 11:04:44;;;;;;;;;15.00;15.00;;;;;9.51;57.48;101358.63;4433561;32;12264;-72
2021/01/08 11:07:28;;;;;;;;;15.00;15.00;;;;;9.45;58.09;101349.66;4423119;32;12307;-71
2021/01/08 11:10:23;;;;;;;;;15.50;15.50;;;;;9.39;57.67;101356.38;4433099;32;12355;-72
2021/01/08 11:13:19;;;;;;;;;15.00;15.00;;;;;8.74;58.86;101342.69;4433956;32;12346;-72
2021/01/08 11:16:15;;;;;;;;;19.75;19.75;;;;;8.76;59.45;101348.75;4434669;32;12278;-72
2021/01/08 11:18:46;;;;;;;;;23.00;22.75;;;;;8.72;59.59;101353.22;4433511;32;12244;-73
2021/01/08 11:21:53;;;;;;;;;17.50;17.50;;;;;9.02;59.07;101352.69;4426792;32;12279;-73
2021/01/08 11:24:42;;;;;;;;;19.50;19.50;;;;;9.11;59.28;101342.56;4431201;32;12984;-72
2021/01/08 11:27:38;;;;;;;;;20.25;20.25;;;;;9.31;58.51;101337.78;4416810;32;12299;-71
2021/01/08 11:30:33;;;;;;;;;20.50;20.50;;;;;9.04;59.07;101336.62;4416716;32;12323;-72
2021/01/08 11:33:15;;;;;;;;;18.25;18.25;;;;;9.05;60.38;101334.72;4418144;32;12277;-72
2021/01/08 11:36:11;;;;;;;;;22.00;22.00;;;;;8.94;59.79;101334.06;4418399;32;12395;-72
2021/01/08 11:38:39;;;;;;;;;21.00;21.00;;;;;9.11;60.22;101331.53;4430086;32;12269;-72
2021/01/08 11:41:35;;;;;;;;;13.50;13.50;;;;;9.16;60.02;101336.13;4422262;32;12363;-71
2021/01/08 11:44:32;;;;;;;;;24.75;23.25;;;;;9.21;59.50;101338.00;4435326;32;12257;-72
2021/01/08 11:47:21;;;;;;;;;27.25;26.00;;;;;9.21;59.77;101333.28;4435601;32;12244;-71
2021/01/08 11:50:16;;;;;;;;;29.75;29.75;;;;;9.16;59.74;101327.84;4435942;32;12928;-72
2021/01/08 11:52:44;;;;;;;;;22.25;22.25;;;;;9.27;59.51;101322.94;4437508;32;12408;-72
2021/01/08 11:55:14;;;;;;;;;23.25;23.25;;;;;9.23;59.48;101325.50;4432431;32;12296;-71
2021/01/08 11:57:44;;;;;;;;;26.50;26.50;;;;;9.05;60.54;101321.72;4430018;32;12274;-71
2021/01/08 12:00:40;;;;;;;;;17.75;17.75;;;;;9.21;60.44;101311.22;4431342;32;13059;-73
2021/01/08 12:03:21;;;;;;;;;26.75;22.25;;;;;9.09;60.39;101297.09;4421433;32;12298;-73
2021/01/08 12:06:17;;;;;;;;;31.25;30.25;;;;;9.06;60.10;101290.25;4418953;32;12342;-71
2021/01/08 12:09:10;;;;;;;;;24.50;24.25;;;;;9.05;60.33;101290.56;4421900;32;12412;-71
2021/01/08 12:12:07;;;;;;;;;31.00;30.50;;;;;8.69;60.94;101299.50;4419089;32;12589;-72
2021/01/08 12:15:03;;;;;;;;;24.75;23.50;;;;;8.97;60.26;101296.75;4426876;32;12289;-73
2021/01/08 12:17:34;;;;;;;;;21.75;21.75;;;;;8.91;60.74;101296.06;4429702;32;12384;-73
2021/01/08 12:20:03;;;;;;;;;25.75;25.75;;;;;9.00;60.58;101296.19;4425621;32;12249;-72
2021/01/08 12:22:32;;;;;;;;;22.75;22.75;;;;;9.03;61.10;101290.84;4437004;32;12282;-72
2021/01/08 12:25:27;;;;;;;;;27.25;24.00;;;;;8.89;61.34;101298.28;4435238;32;12282;-73
2021/01/08 12:28:23;;;;;;;;;20.25;20.00;;;;;8.86;61.14;101298.91;4433526;32;12271;-73
2021/01/08 12:30:52;;;;;;;;;20.50;17.75;;;;;8.90;60.90;101292.50;4432911;32;12395;-72
2021/01/08 12:33:47;;;;;;;;;24.00;21.75;;;;;8.68;61.63;101283.25;4434471;32;12418;-72
2021/01/08 12:36:44;;;;;;;;;20.25;20.25;;;;;8.55;62.14;101291.19;4435938;32;12294;-74
2021/01/08 12:39:39;;;;;;;;;20.50;20.50;;;;;8.31;63.09;101277.50;4435704;32;12276;-72
2021/01/08 12:42:07;;;;;;;;;25.50;25.00;;;;;8.54;62.29;101286.81;4421417;32;12377;-70
2021/01/08 12:45:03;;;;;;;;;27.75;27.00;;;;;8.64;61.99;101280.28;4435185;32;12374;-72
2021/01/08 12:48:02;;;;;;;;;24.75;24.75;;;;;8.63;61.95;101281.41;4434941;32;13053;-72
2021/01/08 12:50:58;;;;;;;;;27.75;26.00;;;;;8.43;62.25;101279.81;4434957;32;12341;-73
2021/01/08 12:53:54;;;;;;;;;29.25;29.25;;;;;8.48;62.33;101278.91;4421832;32;12515;-73
2021/01/08 12:56:50;;;;;;;;;31.50;29.50;;;;;8.55;62.01;101282.91;4418592;32;12378;-71
2021/01/08 12:59:35;;;;;;;;;35.00;30.75;;;;;8.53;61.71;101274.16;4420595;32;12470;-72
2021/01/08 13:02:30;;;;;;;;;29.25;29.25;;;;;8.50;62.24;101279.44;4418913;32;12360;-73
2021/01/08 13:05:09;;;;;;;;;15.25;11.50;;;;;8.50;62.30;101279.44;4421046;32;12385;-71